Time;durP1;ratioP1;P1;durP2;ratioP2;P2;SDS_P1;SDS_P2;PMS_P1;PMS_P2;Temp;Humidity;BMP_temperature;BMP_pressure;BME280_temperature;BME280_humidity;BME280_pressure;Samples;Min_cycle;Max_cycle;Signal;HPM_P1;HPM_P2
2022/03/23 00:02:03;;;;;;;25.83;14.02;;;;;;;6.36;42.70;101841.81;5116908;28;20452;-75
2022/03/23 00:04:32;;;;;;;27.30;13.55;;;;;;;6.54;42.15;101845.91;5116495;28;20047;-78
2022/03/23 00:07:00;;;;;;;25.52;13.75;;;;;;;6.56;42.34;101838.81;5116695;28;20113;-76
2022/03/23 00:09:29;;;;;;;26.15;14.20;;;;;;;6.53;42.48;101833.56;5116363;28;20051;-78
2022/03/23 00:12:19;;;;;;;25.48;14.38;;;;;;;6.32;43.13;101840.13;5116422;28;20046;-77
2022/03/23 00:14:47;;;;;;;29.20;14.75;;;;;;;6.21;43.00;101837.66;5116175;28;20043;-78
2022/03/23 00:17:15;;;;;;;23.85;13.10;;;;;;;6.22;43.35;101838.53;5116277;28;20433;-77
2022/03/23 00:19:44;;;;;;;24.52;13.63;;;;;;;6.19;43.09;101834.19;5116727;28;20131;-78
2022/03/23 00:22:13;;;;;;;27.85;13.45;;;;;;;6.12;43.30;101829.88;5116129;28;20048;-80
2022/03/23 00:24:41;;;;;;;20.58;12.90;;;;;;;6.25;43.24;101828.75;5116477;28;20392;-80
2022/03/23 00:27:09;;;;;;;24.08;13.02;;;;;;;6.23;43.26;101829.69;5116177;28;20435;-80
2022/03/23 00:29:39;;;;;;;24.70;12.23;;;;;;;6.13;43.51;101834.28;5115745;28;20043;-79
2022/03/23 00:32:08;;;;;;;25.25;12.57;;;;;;;6.10;43.36;101834.34;5116327;28;20127;-80
2022/03/23 00:34:36;;;;;;;23.80;13.25;;;;;;;6.11;43.55;101825.47;5116082;28;20422;-78
2022/03/23 00:37:04;;;;;;;24.52;13.48;;;;;;;6.00;43.66;101830.09;5116188;28;20040;-79
2022/03/23 00:39:35;;;;;;;22.20;12.85;;;;;;;6.11;43.53;101830.78;5115933;28;20075;-79
2022/03/23 00:42:04;;;;;;;26.30;12.40;;;;;;;6.07;43.43;101821.13;5115997;28;20069;-79
2022/03/23 00:44:32;;;;;;;26.20;13.55;;;;;;;6.06;43.71;101819.38;5097437;28;20091;-78
2022/03/23 00:47:02;;;;;;;25.63;13.82;;;;;;;5.98;43.96;101821.25;5116023;28;20043;-79
2022/03/23 00:49:30;;;;;;;26.33;13.50;;;;;;;5.97;43.86;101819.50;5115377;28;20047;-79
2022/03/23 00:52:00;;;;;;;31.02;15.20;;;;;;;5.81;44.34;101820.66;5115547;28;20043;-79
2022/03/23 00:54:29;;;;;;;30.15;14.85;;;;;;;5.43;45.37;101814.16;5115622;28;20046;-79
2022/03/23 00:56:57;;;;;;;24.15;13.20;;;;;;;5.49;45.33;101819.34;5115736;28;20393;-78
2022/03/23 00:59:26;;;;;;;22.75;14.38;;;;;;;5.49;45.27;101811.38;5115411;28;20046;-78
2022/03/23 01:01:54;;;;;;;26.67;15.02;;;;;;;5.44;45.18;101819.41;5115414;28;20043;-79
2022/03/23 01:04:24;;;;;;;29.40;15.02;;;;;;;5.37;45.32;101820.38;5115279;28;20054;-79
2022/03/23 01:06:53;;;;;;;26.77;14.55;;;;;;;5.17;45.79;101823.31;5115281;28;20043;-79
2022/03/23 01:09:23;;;;;;;31.17;14.50;;;;;;;5.10;46.27;101823.41;5115065;28;20044;-82
2022/03/23 01:11:51;;;;;;;28.88;14.98;;;;;;;5.01;46.80;101812.94;5115272;28;20126;-80
2022/03/23 01:14:22;;;;;;;27.65;15.00;;;;;;;5.05;46.96;101815.53;5115029;28;20039;-81
2022/03/23 01:16:51;;;;;;;30.55;13.75;;;;;;;5.20;46.22;101816.22;5115393;28;20431;-81
2022/03/23 01:19:20;;;;;;;21.30;13.18;;;;;;;5.31;46.21;101814.31;5096667;28;20056;-82
2022/03/23 01:21:50;;;;;;;23.27;13.63;;;;;;;5.26;46.34;101810.84;5115310;28;20070;-81
2022/03/23 01:24:18;;;;;;;23.48;12.85;;;;;;;5.46;45.71;101811.44;5115020;28;20429;-80
2022/03/23 01:26:46;;;;;;;22.67;13.40;;;;;;;5.44;45.89;101810.59;5115306;28;20039;-80
2022/03/23 01:29:15;;;;;;;24.80;13.77;;;;;;;5.60;45.27;101806.84;5115269;28;20475;-78
2022/03/23 01:31:43;;;;;;;24.52;12.93;;;;;;;5.71;45.29;101811.97;5115251;28;20043;-75
2022/03/23 01:34:11;;;;;;;27.08;13.88;;;;;;;5.63;45.47;101806.78;5115040;28;20046;-76
2022/03/23 01:36:40;;;;;;;24.10;13.82;;;;;;;5.46;45.94;101806.16;5114605;28;20039;-76
2022/03/23 01:39:09;;;;;;;21.88;12.45;;;;;;;5.49;45.82;101803.44;5115058;28;20088;-76
2022/03/23 01:41:41;;;;;;;22.65;12.57;;;;;;;5.40;45.92;101803.59;5114926;28;20071;-76
2022/03/23 01:44:14;;;;;;;21.40;13.10;;;;;;;5.33;46.10;101796.66;5115020;28;20050;-77
2022/03/23 01:47:07;;;;;;;22.13;12.70;;;;;;;5.37;46.13;101795.69;5114859;28;20063;-76
2022/03/23 01:49:37;;;;;;;24.10;12.40;;;;;;;5.25;46.35;101803.81;5114522;28;20044;-77
2022/03/23 01:52:08;;;;;;;20.80;12.68;;;;;;;5.07;46.76;101803.16;5114705;28;20130;-77
2022/03/23 01:54:40;;;;;;;23.70;13.15;;;;;;;4.93;47.53;101801.59;5114427;28;20039;-77
2022/03/23 01:57:10;;;;;;;25.52;13.38;;;;;;;4.98;47.42;101803.28;5096669;28;20059;-76
2022/03/23 01:59:38;;;;;;;20.70;12.93;;;;;;;5.00;47.55;101809.41;5113763;28;20478;-78
2022/03/23 02:02:08;;;;;;;22.92;12.77;;;;;;;5.09;47.23;101806.66;5114561;28;20529;-78
2022/03/23 02:04:37;;;;;;;21.67;12.68;;;;;;;5.28;46.37;101803.75;5096171;28;20051;-78
2022/03/23 02:07:06;;;;;;;25.88;13.32;;;;;;;5.46;45.82;101803.50;5114425;28;20130;-78
2022/03/23 02:09:34;;;;;;;21.27;12.68;;;;;;;5.53;45.63;101794.59;5114046;28;20039;-80
2022/03/23 02:12:07;;;;;;;20.98;12.25;;;;;;;5.49;45.81;101800.81;5114071;28;20128;-80
2022/03/23 02:14:36;;;;;;;22.63;12.48;;;;;;;5.37;46.12;101798.34;5113949;28;20392;-80
2022/03/23 02:17:05;;;;;;;23.45;12.57;;;;;;;5.09;46.65;101806.66;5113885;28;20433;-81
2022/03/23 02:19:36;;;;;;;22.23;12.52;;;;;;;5.30;46.28;101807.25;5113620;28;20055;-80
2022/03/23 02:22:06;;;;;;;21.83;12.40;;;;;;;5.33;46.48;101805.47;5114145;28;20051;-81
2022/03/23 02:24:35;;;;;;;22.45;12.75;;;;;;;5.27;46.31;101794.09;5113854;28;20109;-78
2022/03/23 02:27:03;;;;;;;19.45;12.32;;;;;;;5.35;46.14;101805.44;5114147;28;20412;-78
2022/03/23 02:29:34;;;;;;;21.80;12.02;;;;;;;5.18;46.47;101801.25;5113763;28;20039;-78
2022/03/23 02:32:03;;;;;;;22.23;12.27;;;;;;;5.27;46.02;101802.03;5114148;28;20069;-78
2022/03/23 02:34:32;;;;;;;25.77;12.65;;;;;;;5.21;46.41;101802.09;5113720;28;20557;-78
2022/03/23 02:37:01;;;;;;;18.77;11.57;;;;;;;5.21;46.61;101804.72;5114011;28;20039;-80
2022/03/23 02:39:31;;;;;;;19.10;11.95;;;;;;;5.18;46.40;101797.72;5113594;28;20044;-79
2022/03/23 02:41:59;;;;;;;23.80;12.45;;;;;;;5.20;46.23;101797.69;5114159;28;20046;-78
2022/03/23 02:44:29;;;;;;;24.48;12.07;;;;;;;5.11;46.28;101807.50;5113440;28;20174;-78
2022/03/23 02:46:58;;;;;;;19.55;10.88;;;;;;;5.18;46.28;101801.25;5113416;28;20043;-78
2022/03/23 02:49:26;;;;;;;22.25;10.85;;;;;;;5.32;45.69;101801.06;5113405;28;20047;-76
2022/03/23 02:51:54;;;;;;;21.75;11.73;;;;;;;5.21;46.00;101808.28;5113690;28;20039;-79
2022/03/23 03:03:10;;;;;;;17.77;10.98;;;;;;;4.84;46.73;101803.44;5113728;28;20046;-81
2022/03/23 03:05:38;;;;;;;19.60;10.45;;;;;;;4.86;46.34;101801.66;5112933;28;20044;-81
2022/03/23 03:10:53;;;;;;;18.27;10.50;;;;;;;4.82;45.91;101807.84;5114470;28;20036;-79
2022/03/23 03:13:23;;;;;;;21.02;10.77;;;;;;;4.86;45.96;101798.13;5117837;28;20043;-79
2022/03/23 03:15:52;;;;;;;18.20;10.20;;;;;;;4.91;45.38;101798.94;5117514;28;20032;-80
2022/03/23 03:18:20;;;;;;;19.67;10.25;;;;;;;4.95;45.11;101800.69;5117556;28;20147;-79
2022/03/23 03:20:48;;;;;;;18.65;10.50;;;;;;;4.96;44.93;101799.78;5099057;28;20047;-80
2022/03/23 03:23:17;;;;;;;18.42;10.82;;;;;;;4.99;45.02;101798.84;5117919;28;20417;-80
2022/03/23 03:25:45;;;;;;;16.55;9.57;;;;;;;5.00;44.26;101804.13;5117331;28;20047;-81
2022/03/23 03:28:13;;;;;;;18.02;10.25;;;;;;;5.12;44.11;101798.69;5117811;28;20047;-80
2022/03/23 03:30:42;;;;;;;17.27;9.32;;;;;;;5.09;44.01;101801.34;5117190;28;20389;-79
2022/03/23 03:33:11;;;;;;;20.17;10.82;;;;;;;5.18;43.83;101797.72;5117506;28;20100;-78
2022/03/23 03:35:39;;;;;;;16.83;9.52;;;;;;;5.11;43.99;101806.63;5116779;28;20065;-78
2022/03/23 03:38:07;;;;;;;16.10;9.48;;;;;;;5.11;43.77;101803.97;5099207;28;20075;-78
2022/03/23 03:40:36;;;;;;;16.92;10.10;;;;;;;5.07;44.04;101808.44;5116710;28;20048;-78
2022/03/23 03:43:04;;;;;;;18.67;11.02;;;;;;;4.94;44.55;101812.16;5116963;28;20373;-80
2022/03/23 03:45:32;;;;;;;16.98;10.15;;;;;;;5.04;44.13;101804.97;5116948;28;20036;-80
2022/03/23 03:48:02;;;;;;;17.70;10.60;;;;;;;5.08;44.11;101818.13;5117172;28;20043;-79
2022/03/23 03:50:30;;;;;;;19.27;9.40;;;;;;;5.04;43.95;101805.84;5098755;28;20058;-79
2022/03/23 03:52:59;;;;;;;17.77;9.60;;;;;;;5.01;44.01;101811.16;5116772;28;20126;-79
2022/03/23 03:55:27;;;;;;;18.73;10.05;;;;;;;5.04;43.93;101807.63;5116858;28;20075;-78
2022/03/23 03:57:55;;;;;;;19.23;10.18;;;;;;;4.93;44.67;101813.03;5116613;28;20105;-79
2022/03/23 04:00:23;;;;;;;20.05;10.85;;;;;;;4.85;44.58;101814.91;5116647;28;20044;-79
2022/03/23 04:02:52;;;;;;;20.38;10.18;;;;;;;4.85;44.99;101810.50;5116691;28;20050;-78
2022/03/23 04:05:22;;;;;;;20.17;10.80;;;;;;;4.69;45.60;101811.53;5116678;28;20043;-78
2022/03/23 04:07:50;;;;;;;18.83;10.63;;;;;;;5.10;45.27;101810.16;5116423;28;20039;-78
2022/03/23 04:10:18;;;;;;;21.05;10.55;;;;;;;5.03;45.12;101808.53;5116759;28;20059;-77
2022/03/23 04:12:47;;;;;;;21.52;11.02;;;;;;;4.86;45.81;101809.59;5116305;28;20044;-77
2022/03/23 04:15:15;;;;;;;19.55;10.88;;;;;;;4.87;45.67;101813.09;5116400;28;20040;-79
2022/03/23 04:17:43;;;;;;;19.60;10.32;;;;;;;4.92;45.51;101807.75;5115742;28;20100;-79
2022/03/23 04:20:13;;;;;;;18.35;10.98;;;;;;;5.05;45.20;101814.66;5116075;28;20060;-79
2022/03/23 04:22:43;;;;;;;19.25;10.68;;;;;;;5.11;45.18;101812.78;5115826;28;20036;-79
2022/03/23 04:25:12;;;;;;;18.15;10.70;;;;;;;5.00;45.21;101825.28;5116459;28;20045;-79
2022/03/23 04:27:47;;;;;;;19.35;9.73;;;;;;;4.80;45.90;101819.34;5116162;28;20036;-80
2022/03/23 04:30:18;;;;;;;20.50;10.13;;;;;;;4.96;45.45;101823.56;5116391;28;20052;-79
2022/03/23 04:32:47;;;;;;;20.85;10.90;;;;;;;4.95;45.53;101828.88;5115791;28;20500;-79
2022/03/23 04:35:16;;;;;;;18.92;10.55;;;;;;;4.88;45.75;101826.31;5116299;28;20123;-79
2022/03/23 04:37:47;;;;;;;16.25;10.73;;;;;;;4.62;46.42;101816.91;5115930;28;20053;-79
2022/03/23 04:40:15;;;;;;;19.85;10.65;;;;;;;4.60;46.50;101817.81;5116259;28;20534;-79
2022/03/23 04:42:44;;;;;;;20.55;10.85;;;;;;;4.56;46.50;101826.66;5115782;28;20122;-80
2022/03/23 04:45:14;;;;;;;21.98;10.55;;;;;;;4.55;46.65;101814.34;5115982;28;20044;-80
2022/03/23 04:47:44;;;;;;;20.08;10.63;;;;;;;4.57;46.72;101820.50;5097415;28;20497;-80
2022/03/23 04:50:13;;;;;;;19.10;10.35;;;;;;;4.46;46.75;101822.38;5115988;28;20048;-79
2022/03/23 04:52:44;;;;;;;20.35;10.50;;;;;;;4.43;46.66;101825.03;5115639;28;20560;-80
2022/03/23 04:55:15;;;;;;;18.15;10.52;;;;;;;4.46;46.95;101832.06;5115939;28;20469;-80
2022/03/23 04:57:44;;;;;;;20.65;10.65;;;;;;;4.59;46.56;101829.28;5115349;28;20035;-80
2022/03/23 05:00:15;;;;;;;19.42;10.10;;;;;;;4.67;46.17;101830.97;5115712;28;20036;-80
2022/03/23 05:02:45;;;;;;;18.60;11.07;;;;;;;4.55;46.37;101824.94;5115551;28;20096;-80
2022/03/23 05:05:15;;;;;;;18.33;10.45;;;;;;;4.62;46.12;101830.13;5115379;28;20039;-80
2022/03/23 05:07:45;;;;;;;20.23;11.00;;;;;;;4.47;46.53;101837.34;5115335;28;20377;-80
2022/03/23 05:10:15;;;;;;;19.15;10.98;;;;;;;4.62;46.28;101830.13;5115801;28;20039;-80
2022/03/23 05:12:46;;;;;;;21.23;10.80;;;;;;;4.66;46.04;101834.50;5115008;28;20040;-75
2022/03/23 05:15:16;;;;;;;19.35;9.95;;;;;;;4.75;45.55;101831.75;5115050;28;20054;-78
2022/03/23 05:17:45;;;;;;;20.83;11.13;;;;;;;4.91;45.13;101845.66;5115179;28;20089;-79
2022/03/23 05:20:15;;;;;;;21.77;10.27;;;;;;;4.87;45.15;101834.25;5114900;28;20051;-79
2022/03/23 05:22:43;;;;;;;20.45;10.32;;;;;;;5.03;44.64;101832.31;5115048;28;20043;-78
2022/03/23 05:25:12;;;;;;;17.70;9.75;;;;;;;5.02;44.76;101834.09;5115244;28;20097;-78
2022/03/23 05:27:43;;;;;;;19.00;9.93;;;;;;;5.03;44.86;101834.97;5115008;28;20044;-81
2022/03/23 05:30:12;;;;;;;20.05;11.38;;;;;;;5.03;44.90;101845.53;5114890;28;20449;-79
2022/03/23 05:32:42;;;;;;;21.42;11.50;;;;;;;4.94;45.23;101835.06;5114399;28;20463;-77
2022/03/23 05:35:13;;;;;;;21.10;10.88;;;;;;;5.07;45.18;101836.66;5114545;28;20051;-78
2022/03/23 05:37:42;;;;;;;21.58;10.25;;;;;;;4.95;45.45;101845.63;5114659;28;20040;-80
2022/03/23 05:40:11;;;;;;;25.27;10.93;;;;;;;5.00;45.63;101845.56;5114926;28;20048;-79
2022/03/23 05:42:40;;;;;;;20.48;10.88;;;;;;;5.07;45.30;101839.31;5114661;28;20046;-80
2022/03/23 05:45:12;;;;;;;22.67;11.20;;;;;;;5.02;45.49;101839.38;5115020;28;20469;-80
2022/03/23 05:47:41;;;;;;;19.23;10.57;;;;;;;5.24;45.03;101844.41;5114295;28;20043;-79
2022/03/23 05:50:13;;;;;;;;;;;;;;;5.26;45.04;101838.19;5115192;28;20529;-76
2022/03/23 05:52:42;;;;;;;21.30;10.75;;;;;;;5.42;44.68;101850.31;5114341;28;19920;-79
2022/03/23 05:55:13;;;;;;;21.38;10.95;;;;;;;5.51;44.39;101849.31;5114709;28;20050;-76
2022/03/23 05:57:42;;;;;;;20.55;10.95;;;;;;;5.65;44.37;101847.34;5114241;28;20448;-76
2022/03/23 06:00:13;;;;;;;21.33;10.57;;;;;;;5.79;43.94;101840.94;5114499;28;20131;-75
2022/03/23 06:02:41;;;;;;;22.83;11.43;;;;;;;5.81;44.12;101847.13;5114217;28;20431;-78
2022/03/23 06:05:10;;;;;;;24.42;11.82;;;;;;;5.75;44.45;101848.97;5114085;28;20067;-77
2022/03/23 06:07:40;;;;;;;24.67;12.13;;;;;;;5.91;44.28;101851.41;5113700;28;20043;-78
2022/03/23 06:10:09;;;;;;;23.17;11.80;;;;;;;6.11;43.87;101843.16;5114089;28;20036;-79
2022/03/23 06:12:38;;;;;;;25.83;12.32;;;;;;;6.28;43.89;101839.31;5113735;28;20126;-80
2022/03/23 06:15:08;;;;;;;22.77;12.63;;;;;;;6.37;43.56;101837.38;5113749;28;20043;-78
2022/03/23 06:17:39;;;;;;;26.30;12.60;;;;;;;6.31;43.70;101838.38;5114306;28;20063;-76
2022/03/23 06:20:09;;;;;;;23.13;12.23;;;;;;;6.34;43.28;101840.09;5113535;28;20047;-74
2022/03/23 06:22:37;;;;;;;24.80;11.93;;;;;;;6.82;41.92;101836.53;5113916;28;20043;-78
2022/03/23 06:25:09;;;;;;;24.10;12.65;;;;;;;7.10;41.55;101830.69;5113698;28;20454;-78
2022/03/23 06:27:38;;;;;;;23.35;12.45;;;;;;;7.23;41.41;101834.81;5113327;28;20059;-77
2022/03/23 06:30:07;;;;;;;22.17;11.88;;;;;;;7.24;41.01;101843.66;5114149;28;20093;-78
2022/03/23 06:32:37;;;;;;;23.77;12.10;;;;;;;7.13;41.29;101843.88;5095656;28;20113;-72
2022/03/23 06:35:07;;;;;;;24.30;12.60;;;;;;;7.39;40.65;101838.03;5113853;28;20452;-74
2022/03/23 06:37:36;;;;;;;24.05;12.25;;;;;;;7.73;39.92;101832.84;5113917;28;20036;-74
2022/03/23 06:40:07;;;;;;;23.15;12.88;;;;;;;7.99;39.26;101821.56;5113469;28;20047;-76
2022/03/23 06:42:35;;;;;;;21.92;13.07;;;;;;;8.13;39.17;101837.19;5113389;28;20055;-76
2022/03/23 06:45:04;;;;;;;22.55;12.95;;;;;;;8.11;39.26;101829.25;5113075;28;20062;-76
2022/03/23 06:47:33;;;;;;;26.55;12.57;;;;;;;8.29;38.84;101839.41;5113564;28;20071;-77
2022/03/23 06:50:02;;;;;;;21.15;12.65;;;;;;;8.48;38.48;101837.19;5113149;28;20058;-77
2022/03/23 06:52:32;;;;;;;23.70;12.57;;;;;;;8.65;38.48;101830.53;5113374;28;20354;-76
2022/03/23 06:55:00;;;;;;;21.95;12.45;;;;;;;8.77;38.58;101830.19;5112933;28;20442;-77
2022/03/23 06:57:29;;;;;;;28.25;13.98;;;;;;;8.84;38.46;101832.66;5113029;28;20055;-78
2022/03/23 06:59:59;;;;;;;29.02;12.75;;;;;;;9.02;38.07;101833.94;5112934;28;20044;-76
2022/03/23 07:02:28;;;;;;;28.67;12.95;;;;;;;9.02;38.12;101833.94;5113299;28;20035;-77
2022/03/23 07:04:56;;;;;;;31.02;14.00;;;;;;;9.21;37.62;101828.06;5113224;28;20039;-77
2022/03/23 07:07:26;;;;;;;26.83;13.48;;;;;;;9.20;37.78;101831.66;5113442;28;20058;-72
2022/03/23 07:09:53;;;;;;;23.92;13.02;;;;;;;9.20;37.76;101821.00;5113097;28;20043;-73
2022/03/23 07:12:22;;;;;;;25.98;13.95;;;;;;;9.32;37.30;101826.81;5113459;28;20036;-76
2022/03/23 07:14:53;;;;;;;23.70;13.10;;;;;;;9.30;37.53;101833.13;5112855;28;20481;-75
2022/03/23 07:17:23;;;;;;;27.80;13.65;;;;;;;9.40;37.42;101831.94;5113243;28;20055;-76
2022/03/23 07:19:51;;;;;;;25.75;14.07;;;;;;;9.40;37.47;101831.94;5112539;28;20408;-76
2022/03/23 07:22:19;;;;;;;26.38;14.07;;;;;;;9.59;37.42;101834.91;5113202;28;20052;-75
2022/03/23 07:24:50;;;;;;;30.80;15.20;;;;;;;9.57;37.36;101832.28;5113166;28;20484;-76
2022/03/23 07:27:18;;;;;;;29.08;14.85;;;;;;;9.70;37.44;101828.31;5112935;28;20093;-73
2022/03/23 07:29:49;;;;;;;31.80;15.38;;;;;;;9.64;38.01;101830.28;5112779;28;20066;-75
2022/03/23 07:32:17;;;;;;;29.63;15.18;;;;;;;9.79;37.89;101824.50;5113090;28;20054;-74
2022/03/23 07:34:46;;;;;;;28.48;14.77;;;;;;;9.80;38.38;101820.91;5113000;28;20043;-74
2022/03/23 07:37:14;;;;;;;28.33;15.15;;;;;;;9.89;37.70;101819.75;5113323;28;20055;-79
2022/03/23 07:39:43;;;;;;;29.08;14.57;;;;;;;10.11;37.31;101822.56;5113173;28;20047;-75
2022/03/23 07:42:14;;;;;;;25.33;14.20;;;;;;;10.22;36.96;101823.97;5116352;28;20044;-76
2022/03/23 07:44:42;;;;;;;28.80;14.52;;;;;;;10.17;37.23;101823.22;5108106;28;20469;-76
2022/03/23 07:47:11;;;;;;;28.65;15.50;;;;;;;10.06;37.57;101822.72;5091120;28;20044;-78
2022/03/23 07:49:41;;;;;;;27.05;14.13;;;;;;;10.35;36.99;101816.44;5092750;28;20107;-76
2022/03/23 07:52:10;;;;;;;26.27;13.43;;;;;;;10.60;36.38;101813.78;5098950;28;20055;-78
2022/03/23 07:54:38;;;;;;;27.08;14.30;;;;;;;10.75;35.70;101818.56;5095055;28;20068;-72
2022/03/23 07:57:07;;;;;;;27.08;13.73;;;;;;;10.78;35.86;101818.44;5075571;28;20056;-74
2022/03/23 07:59:37;;;;;;;28.35;13.95;;;;;;;10.83;35.87;101819.16;5096170;28;20044;-76
2022/03/23 08:02:05;;;;;;;22.40;13.45;;;;;;;10.88;35.45;101821.66;5096141;28;20043;-74
2022/03/23 08:04:34;;;;;;;21.23;12.73;;;;;;;10.99;35.14;101821.25;5096286;28;20046;-75
2022/03/23 08:07:03;;;;;;;24.73;13.25;;;;;;;11.09;35.03;101822.66;5095702;28;20446;-75
2022/03/23 08:09:32;;;;;;;31.77;13.73;;;;;;;11.24;34.73;101821.22;5096160;28;20044;-76
2022/03/23 08:12:00;;;;;;;21.48;13.02;;;;;;;11.29;34.53;101820.13;5095474;28;20055;-77
2022/03/23 08:14:28;;;;;;;26.92;13.48;;;;;;;11.22;34.58;101815.94;5096011;28;20118;-75
2022/03/23 08:16:58;;;;;;;27.42;13.10;;;;;;;11.29;34.64;101813.88;5077157;28;20047;-77
2022/03/23 08:19:26;;;;;;;23.30;12.65;;;;;;;11.58;34.08;101813.66;5095623;28;20433;-76
2022/03/23 08:21:57;;;;;;;20.25;11.82;;;;;;;11.72;33.11;101813.09;5095107;28;20056;-77
2022/03/23 08:24:25;;;;;;;27.95;11.68;;;;;;;11.88;33.07;101808.91;5094908;28;20044;-76
2022/03/23 08:26:54;;;;;;;24.75;12.20;;;;;;;12.01;32.61;101810.13;5094828;28;20043;-77
2022/03/23 08:29:23;;;;;;;20.13;11.82;;;;;;;11.97;32.62;101800.50;5095144;28;20044;-75
2022/03/23 08:31:52;;;;;;;23.90;12.50;;;;;;;12.10;32.56;101808.00;5095567;28;20051;-76
2022/03/23 08:34:21;;;;;;;26.13;11.95;;;;;;;12.11;32.53;101807.06;5095777;28;20040;-76
2022/03/23 08:36:50;;;;;;;19.45;11.18;;;;;;;12.26;31.58;101803.78;5095582;28;20063;-76
2022/03/23 08:39:20;;;;;;;20.83;11.13;;;;;;;12.39;31.50;101802.28;5095729;28;20052;-75
2022/03/23 08:41:49;;;;;;;21.70;10.70;;;;;;;12.54;31.26;101796.25;5095686;28;20040;-76
2022/03/23 08:44:17;;;;;;;29.40;10.77;;;;;;;12.80;30.97;101797.78;5095771;28;20058;-75
2022/03/23 08:46:45;;;;;;;19.17;10.82;;;;;;;12.78;30.54;101790.78;5095708;28;20122;-75
2022/03/23 08:49:14;;;;;;;24.92;10.90;;;;;;;12.74;31.27;101798.06;5095321;28;20044;-75
2022/03/23 08:51:46;;;;;;;23.75;11.30;;;;;;;12.74;30.91;101800.75;5095355;28;20480;-76
2022/03/23 08:54:15;;;;;;;17.65;10.07;;;;;;;12.77;30.30;101786.34;5095514;28;20396;-76
2022/03/23 08:56:44;;;;;;;23.02;10.55;;;;;;;12.91;30.40;101797.28;5095201;28;20043;-76
2022/03/23 08:59:12;;;;;;;19.40;9.27;;;;;;;13.20;29.21;101792.44;5095160;28;20044;-76
2022/03/23 09:01:40;;;;;;;17.25;9.43;;;;;;;13.52;28.65;101789.13;5095234;28;20054;-76
2022/03/23 09:04:10;;;;;;;18.40;9.95;;;;;;;13.56;28.39;101792.50;5094983;28;20060;-77
2022/03/23 09:06:38;;;;;;;18.23;9.40;;;;;;;13.57;28.54;101787.06;5095268;28;20477;-76
2022/03/23 09:09:08;;;;;;;18.05;9.45;;;;;;;13.34;29.30;101785.50;5093411;28;20072;-75
2022/03/23 09:11:37;;;;;;;17.77;9.55;;;;;;;13.57;28.85;101780.84;5095129;28;20431;-76
2022/03/23 09:14:05;;;;;;;19.20;10.07;;;;;;;13.79;28.42;101769.94;5094672;28;20089;-75
2022/03/23 09:16:34;;;;;;;18.55;9.38;;;;;;;13.93;28.40;101770.13;5095245;28;20043;-75
2022/03/23 09:19:02;;;;;;;18.50;9.85;;;;;;;13.80;28.51;101774.34;5094393;28;20044;-74
2022/03/23 09:21:31;;;;;;;16.55;9.68;;;;;;;13.93;28.47;101767.44;5094346;28;20059;-75
2022/03/23 09:23:59;;;;;;;16.95;9.25;;;;;;;14.14;28.31;101762.81;5094731;28;20047;-75
2022/03/23 09:26:29;;;;;;;17.60;9.65;;;;;;;14.21;28.03;101764.22;5094397;28;20043;-75
2022/03/23 09:28:58;;;;;;;17.80;10.07;;;;;;;13.89;28.50;101760.47;5094412;28;20051;-76
2022/03/23 09:31:26;;;;;;;17.40;9.65;;;;;;;14.31;27.95;101769.03;5094628;28;20040;-75
2022/03/23 09:33:54;;;;;;;14.30;9.10;;;;;;;14.22;27.71;101755.22;5094074;28;20400;-77
2022/03/23 09:37:47;;;;;;;15.57;9.20;;;;;;;14.39;27.46;101757.06;5094413;28;20040;-76
2022/03/23 09:39:12;;;;;;;18.20;8.80;;;;;;;14.17;27.58;101752.78;5076008;28;20090;-76
2022/03/23 09:41:43;;;;;;;15.88;8.25;;;;;;;14.17;27.87;101750.09;5093931;28;20040;-76
2022/03/23 09:44:12;;;;;;;14.43;7.85;;;;;;;14.88;26.47;101752.66;5093618;28;20047;-75
2022/03/23 09:46:42;;;;;;;18.42;8.32;;;;;;;15.06;26.02;101751.66;5094349;28;20040;-75
2022/03/23 09:49:11;;;;;;;16.92;8.73;;;;;;;15.03;26.28;101748.25;5093677;28;20512;-75
2022/03/23 09:51:40;;;;;;;16.25;8.45;;;;;;;15.28;26.08;101748.63;5093385;28;20036;-75
2022/03/23 09:54:08;;;;;;;15.82;7.88;;;;;;;15.23;24.86;101748.00;5092897;28;20070;-76
2022/03/23 09:56:39;;;;;;;14.50;7.45;;;;;;;15.18;24.91;101736.66;5093403;28;20481;-76
2022/03/23 09:59:09;;;;;;;13.40;7.03;;;;;;;15.36;24.48;101742.81;5092901;28;20036;-76
2022/03/23 10:02:43;;;;;;;15.15;7.70;;;;;;;15.44;24.77;101737.84;5093468;28;20047;-75
2022/03/23 10:05:44;;;;;;;14.75;6.53;;;;;;;15.52;24.45;101726.66;5093519;28;20052;-75
2022/03/23 10:08:46;;;;;;;14.75;7.30;;;;;;;15.45;24.17;101729.72;5093290;28;20075;-75
2022/03/23 10:11:47;;;;;;;12.70;7.20;;;;;;;15.42;24.55;101732.56;5062263;28;20072;-75
2022/03/23 10:14:57;;;;;;;12.88;6.70;;;;;;;15.57;23.74;101721.91;5060585;28;20481;-76
2022/03/23 10:18:08;;;;;;;13.50;6.28;;;;;;;15.62;23.57;101728.75;5093788;28;20043;-75
2022/03/23 10:20:37;;;;;;;14.23;6.00;;;;;;;15.61;23.43;101720.78;5093231;28;20475;-75
2022/03/23 10:23:10;;;;;;;11.20;7.03;;;;;;;15.51;24.04;101722.22;5093429;28;20371;-75
2022/03/23 10:25:40;;;;;;;13.20;6.60;;;;;;;15.48;23.80;101708.97;5093582;28;20040;-75
2022/03/23 10:28:13;;;;;;;8.88;6.05;;;;;;;15.52;23.05;101705.13;5092844;28;20485;-75
2022/03/23 10:30:44;;;;;;;9.95;6.05;;;;;;;15.66;22.81;101703.44;5093448;28;20051;-74
2022/03/23 10:33:22;;;;;;;12.98;6.50;;;;;;;15.95;22.33;101704.41;5093230;28;20051;-75
2022/03/23 10:35:51;;;;;;;12.40;6.50;;;;;;;15.92;22.59;101706.38;5093663;28;20044;-75
2022/03/23 10:38:21;;;;;;;11.65;6.38;;;;;;;15.68;22.98;101706.03;5093230;28;20153;-75
2022/03/23 10:40:55;;;;;;;13.25;6.53;;;;;;;15.65;23.29;101695.47;5093255;28;20044;-74
2022/03/23 10:43:35;;;;;;;12.57;6.53;;;;;;;15.68;22.73;101695.28;5092685;28;20071;-75
2022/03/23 10:46:08;;;;;;;13.43;6.38;;;;;;;15.64;23.08;101693.72;5092782;28;20054;-75
2022/03/23 10:48:50;;;;;;;10.48;6.50;;;;;;;15.52;22.82;101689.00;5093416;28;20052;-75
2022/03/23 10:51:26;;;;;;;14.48;6.55;;;;;;;15.33;23.27;101687.38;5092895;28;20048;-75
2022/03/23 10:53:57;;;;;;;12.82;6.50;;;;;;;15.36;23.43;101679.16;5093102;28;20051;-75
2022/03/23 10:56:30;;;;;;;10.35;5.53;;;;;;;15.55;22.86;101678.97;5075155;28;20484;-75
2022/03/23 10:59:32;;;;;;;13.25;6.15;;;;;;;15.55;22.92;101675.41;5093003;28;20043;-76
2022/03/23 11:02:03;;;;;;;15.07;6.20;;;;;;;15.55;22.73;101667.34;5074490;28;20072;-76
2022/03/23 11:04:46;;;;;;;12.23;6.70;;;;;;;15.51;22.72;101660.38;5093165;28;20547;-75
2022/03/23 11:07:25;;;;;;;10.67;5.87;;;;;;;15.77;22.26;101658.88;5092491;28;20059;-76
2022/03/23 11:18:15;;;;;;;10.20;5.72;;;;;;;15.97;22.19;101648.66;5092338;28;20040;-75
2022/03/23 11:20:46;;;;;;;12.30;5.95;;;;;;;15.76;22.38;101644.56;5092134;28;20064;-74
2022/03/23 11:23:18;;;;;;;9.82;5.88;;;;;;;16.00;21.98;101640.38;5092067;28;20396;-75
2022/03/23 11:25:47;;;;;;;14.18;6.25;;;;;;;16.13;21.60;101639.66;5091629;28;20400;-75
2022/03/23 11:28:16;;;;;;;9.88;6.03;;;;;;;16.31;21.06;101638.53;5091564;28;20051;-75
2022/03/23 11:30:46;;;;;;;11.05;6.28;;;;;;;16.08;21.45;101629.16;5092324;28;20400;-75
2022/03/23 11:33:17;;;;;;;11.95;6.03;;;;;;;16.05;21.39;101634.75;5095118;28;20397;-75
2022/03/23 11:35:49;;;;;;;10.65;5.63;;;;;;;16.32;20.91;101626.78;5096225;28;20051;-75
2022/03/23 11:38:20;;;;;;;12.38;5.93;;;;;;;16.34;20.93;101629.38;5096125;28;20064;-74
2022/03/23 11:40:50;;;;;;;10.38;5.45;;;;;;;16.38;20.19;101625.53;5096537;28;20477;-75
2022/03/23 11:43:21;;;;;;;9.20;5.47;;;;;;;16.43;20.52;101618.03;5096195;28;20472;-75
2022/03/23 11:46:10;;;;;;;9.25;5.32;;;;;;;16.22;20.14;101617.56;5095838;28;20048;-76
2022/03/23 11:48:58;;;;;;;9.13;5.47;;;;;;;16.07;20.04;101611.28;5096362;28;20420;-75
2022/03/23 11:52:05;;;;;;;11.27;5.60;;;;;;;16.23;20.08;101605.81;5096034;28;20071;-75
2022/03/23 11:58:04;;;;;;;10.13;5.05;;;;;;;16.98;19.73;101584.84;5096361;28;20050;-75